CSC8633 ZUCK-ZULS
Flight info
| Callsign | CSC8633 |
|---|---|
| Flight time | N/A |
| Altitude | 34100 |
| Route | URGEG1Z URGEG W80 WFX B213 LXA |
| Aircraft | A321/M-SDE3FGHIRWY/LB1 |
Departure
| Time | 2026-04-26 07:00 |
|---|---|
| Airport | Chongqing Jiangbei International Airport (ZUCK) |
Arrival
| Time | N/A |
|---|---|
| Airport | Lhasa Gonggar International Airport (ZULS) |
| Time | Latitude | Longitude | Altitude | Speed | Heading |
|---|---|---|---|---|---|
| 2026-04-26 06:46 | 29.71597 | 106.65689 | 1342 ft | 0 kts | 291° |
| 2026-04-26 06:54 | 29.71596 | 106.65692 | 1341 ft | 2 kts | 291° |
| 2026-04-26 06:54 | 29.71590 | 106.65710 | 1342 ft | 2 kts | 291° |
| 2026-04-26 06:55 | 29.71584 | 106.65727 | 1344 ft | 2 kts | 291° |
| 2026-04-26 06:55 | 29.71578 | 106.65744 | 1343 ft | 2 kts | 283° |
| 2026-04-26 06:55 | 29.71576 | 106.65763 | 1344 ft | 2 kts | 270° |
| 2026-04-26 06:55 | 29.71579 | 106.65781 | 1343 ft | 2 kts | 214° |
| 2026-04-26 06:56 | 29.71581 | 106.65784 | 1343 ft | 0 kts | 198° |
| 2026-04-26 06:57 | 29.71568 | 106.65780 | 1342 ft | 8 kts | 190° |
| 2026-04-26 06:57 | 29.71520 | 106.65867 | 1338 ft | 16 kts | 110° |
| 2026-04-26 06:58 | 29.71488 | 106.65993 | 1341 ft | 17 kts | 105° |
| 2026-04-26 06:58 | 29.71467 | 106.66123 | 1337 ft | 17 kts | 70° |
| 2026-04-26 06:58 | 29.71569 | 106.66189 | 1336 ft | 18 kts | 17° |
| 2026-04-26 06:58 | 29.71616 | 106.66205 | 1337 ft | 0 kts | 17° |
| 2026-04-26 06:59 | 29.71623 | 106.66208 | 1336 ft | 3 kts | 17° |
| 2026-04-26 06:59 | 29.71693 | 106.66232 | 1336 ft | 31 kts | 16° |
| 2026-04-26 06:59 | 29.72091 | 106.66368 | 1332 ft | 87 kts | 17° |
| 2026-04-26 07:00 | 29.72853 | 106.66633 | 1329 ft | 140 kts | 17° |
| 2026-04-26 07:00 | 29.73940 | 106.67005 | 1441 ft | 173 kts | 17° |
| 2026-04-26 07:00 | 29.75086 | 106.67401 | 2053 ft | 172 kts | 18° |
| 2026-04-26 07:00 | 29.76235 | 106.67802 | 2630 ft | 173 kts | 20° |
| 2026-04-26 07:01 | 29.77327 | 106.68400 | 3145 ft | 176 kts | 33° |
| 2026-04-26 07:01 | 29.78426 | 106.69176 | 3322 ft | 196 kts | 36° |
| 2026-04-26 07:01 | 29.79645 | 106.70072 | 3501 ft | 219 kts | 36° |
| 2026-04-26 07:01 | 29.81007 | 106.71078 | 3784 ft | 245 kts | 35° |
| 2026-04-26 07:02 | 29.82513 | 106.72183 | 4125 ft | 268 kts | 34° |
| 2026-04-26 07:02 | 29.84115 | 106.73342 | 4651 ft | 282 kts | 33° |
| 2026-04-26 07:02 | 29.85805 | 106.74554 | 5274 ft | 289 kts | 33° |
| 2026-04-26 07:02 | 29.87525 | 106.75781 | 6032 ft | 293 kts | 32° |
| 2026-04-26 07:03 | 29.89268 | 106.77031 | 6853 ft | 295 kts | 32° |
| 2026-04-26 07:03 | 29.91019 | 106.78299 | 7668 ft | 298 kts | 32° |
| 2026-04-26 07:03 | 29.92780 | 106.79587 | 8440 ft | 301 kts | 32° |
| 2026-04-26 07:03 | 29.94553 | 106.80887 | 9165 ft | 304 kts | 32° |
| 2026-04-26 07:04 | 29.96349 | 106.82201 | 9877 ft | 307 kts | 32° |
| 2026-04-26 07:04 | 29.98161 | 106.83524 | 10498 ft | 310 kts | 32° |
| 2026-04-26 07:04 | 30.00076 | 106.84750 | 10707 ft | 330 kts | 20° |
| 2026-04-26 07:04 | 30.02372 | 106.85380 | 10837 ft | 348 kts | 3° |
| 2026-04-26 07:05 | 30.04803 | 106.85163 | 11181 ft | 355 kts | 344° |
| 2026-04-26 07:05 | 30.07089 | 106.84111 | 11711 ft | 355 kts | 327° |
| 2026-04-26 07:05 | 30.09026 | 106.82371 | 12295 ft | 354 kts | 315° |
| 2026-04-26 07:05 | 30.10856 | 106.80457 | 12884 ft | 356 kts | 315° |
| 2026-04-26 07:06 | 30.12693 | 106.78519 | 13492 ft | 359 kts | 314° |
| 2026-04-26 07:06 | 30.14541 | 106.76563 | 14011 ft | 362 kts | 314° |
| 2026-04-26 07:06 | 30.16399 | 106.74592 | 14520 ft | 364 kts | 314° |
| 2026-04-26 07:06 | 30.18282 | 106.72598 | 15004 ft | 367 kts | 314° |
| 2026-04-26 07:07 | 30.20148 | 106.70619 | 15513 ft | 370 kts | 314° |
| 2026-04-26 07:07 | 30.22056 | 106.68601 | 16030 ft | 373 kts | 315° |
| 2026-04-26 07:07 | 30.23982 | 106.66569 | 16515 ft | 376 kts | 315° |
| 2026-04-26 07:07 | 30.25919 | 106.64528 | 16993 ft | 379 kts | 315° |
| 2026-04-26 07:08 | 30.27875 | 106.62465 | 17485 ft | 381 kts | 315° |
| 2026-04-26 07:08 | 30.29841 | 106.60388 | 17990 ft | 384 kts | 314° |
| 2026-04-26 07:08 | 30.31820 | 106.58290 | 18444 ft | 387 kts | 314° |
| 2026-04-26 07:08 | 30.33807 | 106.56180 | 18877 ft | 389 kts | 314° |
| 2026-04-26 07:09 | 30.35804 | 106.54055 | 19331 ft | 391 kts | 314° |
| 2026-04-26 07:09 | 30.37812 | 106.51924 | 19766 ft | 393 kts | 315° |
| 2026-04-26 07:09 | 30.39838 | 106.49774 | 20215 ft | 394 kts | 315° |
| 2026-04-26 07:09 | 30.41867 | 106.47616 | 20652 ft | 396 kts | 315° |
| 2026-04-26 07:10 | 30.47983 | 106.41111 | 21888 ft | 403 kts | 315° |
| 2026-04-26 07:11 | 30.52148 | 106.36676 | 22632 ft | 409 kts | 315° |
| 2026-04-26 07:11 | 30.54247 | 106.34440 | 23089 ft | 411 kts | 315° |
| 2026-04-26 07:11 | 30.56237 | 106.32061 | 23474 ft | 410 kts | 306° |
| 2026-04-26 07:11 | 30.57765 | 106.29270 | 23777 ft | 409 kts | 294° |
| 2026-04-26 07:12 | 30.58753 | 106.26186 | 24097 ft | 409 kts | 283° |
| 2026-04-26 07:12 | 30.59170 | 106.22931 | 24397 ft | 409 kts | 271° |
| 2026-04-26 07:12 | 30.59002 | 106.19642 | 24692 ft | 409 kts | 262° |
| 2026-04-26 07:12 | 30.58654 | 106.16395 | 24991 ft | 411 kts | 263° |
| 2026-04-26 07:13 | 30.58310 | 106.13089 | 25290 ft | 413 kts | 263° |
| 2026-04-26 07:13 | 30.57972 | 106.09774 | 25574 ft | 414 kts | 263° |
| 2026-04-26 07:13 | 30.57636 | 106.06445 | 25870 ft | 416 kts | 263° |
| 2026-04-26 07:13 | 30.57412 | 106.04231 | 26057 ft | 417 kts | 263° |
| 2026-04-26 07:14 | 30.56957 | 105.99746 | 26437 ft | 420 kts | 263° |
| 2026-04-26 07:14 | 30.56729 | 105.97519 | 26621 ft | 421 kts | 263° |
| 2026-04-26 07:14 | 30.56369 | 105.94137 | 26868 ft | 424 kts | 263° |
| 2026-04-26 07:14 | 30.55998 | 105.90741 | 27156 ft | 425 kts | 263° |
| 2026-04-26 07:15 | 30.55639 | 105.87329 | 27441 ft | 427 kts | 263° |
| 2026-04-26 07:15 | 30.55289 | 105.83900 | 27753 ft | 429 kts | 263° |
| 2026-04-26 07:15 | 30.54822 | 105.79324 | 28170 ft | 431 kts | 263° |
| 2026-04-26 07:15 | 30.54582 | 105.77013 | 28380 ft | 432 kts | 263° |
| 2026-04-26 07:16 | 30.54221 | 105.73544 | 28667 ft | 434 kts | 263° |
| 2026-04-26 07:16 | 30.53856 | 105.70062 | 28925 ft | 435 kts | 263° |
| 2026-04-26 07:16 | 30.53484 | 105.66565 | 29189 ft | 437 kts | 263° |
| 2026-04-26 07:16 | 30.53107 | 105.63058 | 29437 ft | 439 kts | 263° |
| 2026-04-26 07:17 | 30.52725 | 105.59540 | 29669 ft | 441 kts | 263° |
| 2026-04-26 07:17 | 30.52343 | 105.56004 | 29920 ft | 443 kts | 263° |
| 2026-04-26 07:17 | 30.51964 | 105.52455 | 30130 ft | 444 kts | 263° |
| 2026-04-26 07:17 | 30.51593 | 105.48937 | 30335 ft | 446 kts | 263° |
| 2026-04-26 07:18 | 30.51217 | 105.45366 | 30620 ft | 445 kts | 263° |
| 2026-04-26 07:18 | 30.50837 | 105.41804 | 30927 ft | 444 kts | 263° |
| 2026-04-26 07:18 | 30.50455 | 105.38267 | 31231 ft | 443 kts | 263° |
| 2026-04-26 07:18 | 30.50066 | 105.34710 | 31533 ft | 442 kts | 263° |
| 2026-04-26 07:19 | 30.49852 | 105.31213 | 31836 ft | 441 kts | 271° |
| 2026-04-26 07:19 | 30.50110 | 105.27676 | 32133 ft | 440 kts | 277° |
| 2026-04-26 07:19 | 30.50527 | 105.24156 | 32406 ft | 440 kts | 277° |
| 2026-04-26 07:19 | 30.50939 | 105.20639 | 32700 ft | 440 kts | 277° |
| 2026-04-26 07:20 | 30.51346 | 105.17124 | 33010 ft | 439 kts | 277° |
| 2026-04-26 07:20 | 30.51746 | 105.13610 | 33327 ft | 438 kts | 277° |
| 2026-04-26 07:20 | 30.52143 | 105.10113 | 33664 ft | 437 kts | 277° |
| 2026-04-26 07:20 | 30.52540 | 105.06614 | 33904 ft | 437 kts | 277° |
| 2026-04-26 07:21 | 30.52930 | 105.03175 | 33955 ft | 434 kts | 277° |
| 2026-04-26 07:21 | 30.53716 | 104.96253 | 33957 ft | 431 kts | 277° |
| 2026-04-26 07:22 | 30.54496 | 104.89346 | 33957 ft | 432 kts | 277° |
| 2026-04-26 07:22 | 30.55273 | 104.82410 | 33957 ft | 433 kts | 277° |
| 2026-04-26 07:23 | 30.56049 | 104.75471 | 33957 ft | 434 kts | 277° |
| 2026-04-26 07:23 | 30.56939 | 104.68554 | 33956 ft | 433 kts | 281° |
| 2026-04-26 07:24 | 30.58217 | 104.61719 | 33959 ft | 433 kts | 283° |
| 2026-04-26 07:24 | 30.59588 | 104.54955 | 33957 ft | 433 kts | 282° |
| 2026-04-26 07:25 | 30.60550 | 104.48075 | 33954 ft | 433 kts | 270° |
| 2026-04-26 07:25 | 30.60145 | 104.41108 | 33952 ft | 433 kts | 266° |
| 2026-04-26 07:26 | 30.59698 | 104.34142 | 33951 ft | 433 kts | 266° |
| 2026-04-26 07:26 | 30.59265 | 104.27168 | 33950 ft | 433 kts | 266° |
| 2026-04-26 07:27 | 30.58831 | 104.20191 | 33941 ft | 433 kts | 266° |
| 2026-04-26 07:27 | 30.58434 | 104.13211 | 33941 ft | 433 kts | 266° |
| 2026-04-26 07:28 | 30.58034 | 104.06273 | 33941 ft | 433 kts | 266° |
| 2026-04-26 07:28 | 30.57621 | 103.99305 | 33928 ft | 433 kts | 266° |
| 2026-04-26 07:29 | 30.57960 | 103.92368 | 33924 ft | 432 kts | 283° |
| 2026-04-26 07:29 | 30.59761 | 103.85705 | 33925 ft | 433 kts | 287° |
| 2026-04-26 07:30 | 30.61616 | 103.79068 | 33944 ft | 432 kts | 287° |
| 2026-04-26 07:30 | 30.63460 | 103.72428 | 33950 ft | 431 kts | 287° |
| 2026-04-26 07:31 | 30.65257 | 103.65849 | 33952 ft | 430 kts | 286° |
| 2026-04-26 07:31 | 30.66882 | 103.59175 | 33954 ft | 429 kts | 284° |
| 2026-04-26 07:32 | 30.68445 | 103.52476 | 33949 ft | 429 kts | 284° |
| 2026-04-26 07:32 | 30.70034 | 103.45801 | 33979 ft | 428 kts | 285° |
| 2026-04-26 07:33 | 30.71643 | 103.39165 | 34004 ft | 426 kts | 285° |
| 2026-04-26 07:33 | 30.73243 | 103.32532 | 34034 ft | 424 kts | 285° |
| 2026-04-26 07:34 | 30.74818 | 103.25983 | 34027 ft | 424 kts | 285° |
| 2026-04-26 07:34 | 30.76402 | 103.19384 | 34050 ft | 423 kts | 285° |
| 2026-04-26 07:35 | 30.77972 | 103.12795 | 34037 ft | 423 kts | 285° |
| 2026-04-26 07:35 | 30.79538 | 103.06215 | 34041 ft | 421 kts | 285° |
| 2026-04-26 07:36 | 30.80568 | 102.99537 | 34055 ft | 420 kts | 271° |
| 2026-04-26 07:36 | 30.80453 | 102.92736 | 34048 ft | 420 kts | 269° |
| 2026-04-26 07:37 | 30.80337 | 102.85945 | 34039 ft | 420 kts | 270° |
| 2026-04-26 07:37 | 30.80218 | 102.79151 | 34039 ft | 420 kts | 269° |
| 2026-04-26 07:38 | 30.80090 | 102.72356 | 34021 ft | 420 kts | 269° |
| 2026-04-26 07:38 | 30.79964 | 102.65609 | 34021 ft | 420 kts | 269° |
| 2026-04-26 07:39 | 30.79826 | 102.58810 | 33999 ft | 420 kts | 269° |
| 2026-04-26 07:39 | 30.79688 | 102.52014 | 34016 ft | 420 kts | 269° |
| 2026-04-26 07:40 | 30.79550 | 102.45209 | 33985 ft | 421 kts | 269° |
| 2026-04-26 07:40 | 30.79406 | 102.38412 | 33981 ft | 420 kts | 269° |
| 2026-04-26 07:41 | 30.79260 | 102.31609 | 33954 ft | 420 kts | 269° |
| 2026-04-26 07:41 | 30.79106 | 102.24814 | 33953 ft | 420 kts | 269° |
| 2026-04-26 07:42 | 30.78948 | 102.18015 | 33925 ft | 420 kts | 269° |
| 2026-04-26 07:42 | 30.78790 | 102.11217 | 33923 ft | 421 kts | 269° |
| 2026-04-26 07:43 | 30.78632 | 102.04420 | 33917 ft | 420 kts | 269° |
| 2026-04-26 07:43 | 30.78466 | 101.97618 | 33902 ft | 421 kts | 269° |
| 2026-04-26 07:44 | 30.78304 | 101.90854 | 33900 ft | 420 kts | 271° |
| 2026-04-26 07:44 | 30.78799 | 101.84084 | 33909 ft | 421 kts | 276° |
| 2026-04-26 07:45 | 30.79370 | 101.77295 | 33907 ft | 421 kts | 276° |
| 2026-04-26 07:45 | 30.79928 | 101.70518 | 33914 ft | 421 kts | 275° |
| 2026-04-26 07:46 | 30.80485 | 101.63738 | 33914 ft | 421 kts | 276° |
| 2026-04-26 07:46 | 30.81042 | 101.56950 | 33924 ft | 421 kts | 276° |
| 2026-04-26 07:47 | 30.81592 | 101.50171 | 33925 ft | 421 kts | 275° |
| 2026-04-26 07:47 | 30.82139 | 101.43394 | 33914 ft | 420 kts | 276° |
| 2026-04-26 07:48 | 30.82687 | 101.36616 | 33913 ft | 421 kts | 275° |
| 2026-04-26 07:48 | 30.83225 | 101.29837 | 33907 ft | 421 kts | 275° |
| 2026-04-26 07:49 | 30.83759 | 101.23071 | 33907 ft | 420 kts | 276° |
| 2026-04-26 07:49 | 30.84290 | 101.16314 | 33910 ft | 419 kts | 275° |
| 2026-04-26 07:50 | 30.85083 | 101.06192 | 33905 ft | 418 kts | 276° |
| 2026-04-26 07:50 | 30.85607 | 100.99452 | 33905 ft | 418 kts | 275° |
| 2026-04-26 07:51 | 30.86121 | 100.92704 | 33903 ft | 418 kts | 275° |
| 2026-04-26 07:51 | 30.86635 | 100.86010 | 33902 ft | 418 kts | 276° |
| 2026-04-26 07:52 | 30.87150 | 100.79269 | 33901 ft | 418 kts | 275° |
| 2026-04-26 07:52 | 30.87652 | 100.72525 | 33900 ft | 418 kts | 275° |
| 2026-04-26 07:53 | 30.88157 | 100.65780 | 33898 ft | 418 kts | 275° |
| 2026-04-26 07:53 | 30.88661 | 100.59038 | 33896 ft | 418 kts | 275° |
| 2026-04-26 07:54 | 30.89158 | 100.52301 | 33884 ft | 418 kts | 275° |
| 2026-04-26 07:54 | 30.89652 | 100.45561 | 33883 ft | 418 kts | 275° |
| 2026-04-26 07:55 | 30.90143 | 100.38816 | 33869 ft | 418 kts | 275° |
| 2026-04-26 07:55 | 30.90632 | 100.32077 | 33866 ft | 418 kts | 275° |
| 2026-04-26 07:56 | 30.91114 | 100.25332 | 33854 ft | 418 kts | 275° |
| 2026-04-26 07:56 | 30.91594 | 100.18585 | 33853 ft | 418 kts | 275° |
| 2026-04-26 07:57 | 30.92065 | 100.11839 | 33859 ft | 418 kts | 275° |
| 2026-04-26 07:57 | 30.92538 | 100.05091 | 33856 ft | 418 kts | 275° |
| 2026-04-26 07:58 | 30.93004 | 99.98380 | 33856 ft | 418 kts | 275° |
| 2026-04-26 07:58 | 30.93527 | 99.91632 | 33867 ft | 418 kts | 275° |
| 2026-04-26 07:59 | 30.94086 | 99.84888 | 33867 ft | 418 kts | 275° |
| 2026-04-26 07:59 | 30.94629 | 99.78141 | 33869 ft | 419 kts | 275° |
| 2026-04-26 08:00 | 30.95162 | 99.71384 | 33869 ft | 419 kts | 275° |
| 2026-04-26 08:00 | 30.95684 | 99.64612 | 33868 ft | 420 kts | 275° |
| 2026-04-26 08:01 | 30.96197 | 99.57828 | 33869 ft | 420 kts | 275° |
| 2026-04-26 08:01 | 30.96718 | 99.51044 | 33858 ft | 420 kts | 275° |
| 2026-04-26 08:02 | 30.97235 | 99.44248 | 33870 ft | 421 kts | 276° |
| 2026-04-26 08:02 | 30.97751 | 99.37454 | 33852 ft | 421 kts | 276° |
| 2026-04-26 08:03 | 30.98261 | 99.30666 | 33847 ft | 421 kts | 276° |
| 2026-04-26 08:03 | 30.98766 | 99.23866 | 33832 ft | 421 kts | 276° |
| 2026-04-26 08:04 | 30.99265 | 99.17119 | 33829 ft | 421 kts | 276° |
| 2026-04-26 08:04 | 30.99684 | 99.11428 | 33825 ft | 421 kts | 276° |
| 2026-04-26 08:05 | 31.00183 | 99.04632 | 33797 ft | 421 kts | 276° |
| 2026-04-26 08:05 | 31.00673 | 98.97821 | 33801 ft | 422 kts | 276° |
| 2026-04-26 08:06 | 31.01162 | 98.90996 | 33791 ft | 423 kts | 276° |
| 2026-04-26 08:06 | 31.01653 | 98.84153 | 33791 ft | 423 kts | 275° |
| 2026-04-26 08:07 | 31.02137 | 98.77355 | 33790 ft | 424 kts | 275° |
| 2026-04-26 08:07 | 31.02612 | 98.70513 | 33790 ft | 424 kts | 275° |
| 2026-04-26 08:08 | 31.03097 | 98.63663 | 33784 ft | 424 kts | 276° |
| 2026-04-26 08:08 | 31.03664 | 98.56814 | 33797 ft | 424 kts | 277° |
| 2026-04-26 08:09 | 31.04264 | 98.49960 | 33797 ft | 425 kts | 277° |
| 2026-04-26 08:09 | 31.04845 | 98.43092 | 33802 ft | 425 kts | 276° |
| 2026-04-26 08:10 | 31.05400 | 98.36261 | 33801 ft | 425 kts | 276° |
| 2026-04-26 08:10 | 31.05953 | 98.29389 | 33819 ft | 425 kts | 277° |
| 2026-04-26 08:11 | 31.06507 | 98.22524 | 33829 ft | 425 kts | 277° |
| 2026-04-26 08:11 | 31.07059 | 98.15658 | 33842 ft | 425 kts | 276° |
| 2026-04-26 08:12 | 31.07610 | 98.08804 | 33840 ft | 425 kts | 277° |
| 2026-04-26 08:12 | 31.08166 | 98.01938 | 33851 ft | 424 kts | 276° |
| 2026-04-26 08:13 | 31.08713 | 97.95079 | 33852 ft | 424 kts | 276° |
| 2026-04-26 08:13 | 31.09258 | 97.88229 | 33850 ft | 424 kts | 276° |
| 2026-04-26 08:14 | 31.09806 | 97.81375 | 33849 ft | 425 kts | 276° |
| 2026-04-26 08:14 | 31.10341 | 97.74548 | 33851 ft | 425 kts | 276° |
| 2026-04-26 08:15 | 31.10875 | 97.67666 | 33839 ft | 425 kts | 276° |
| 2026-04-26 08:15 | 31.11414 | 97.60806 | 33839 ft | 425 kts | 276° |
| 2026-04-26 08:16 | 31.11948 | 97.53939 | 33820 ft | 425 kts | 276° |
| 2026-04-26 08:16 | 31.12463 | 97.47074 | 33824 ft | 424 kts | 276° |
| 2026-04-26 08:17 | 31.12973 | 97.40212 | 33826 ft | 424 kts | 276° |
| 2026-04-26 08:17 | 31.13490 | 97.33391 | 33828 ft | 424 kts | 276° |
| 2026-04-26 08:18 | 31.14012 | 97.26529 | 33813 ft | 424 kts | 276° |
| 2026-04-26 08:18 | 31.14486 | 97.19666 | 33814 ft | 424 kts | 272° |
| 2026-04-26 08:19 | 31.13644 | 97.12849 | 33809 ft | 427 kts | 258° |
| 2026-04-26 08:19 | 31.12196 | 97.06128 | 33801 ft | 427 kts | 258° |
| 2026-04-26 08:20 | 31.10759 | 96.99392 | 33807 ft | 428 kts | 258° |
| 2026-04-26 08:20 | 31.09313 | 96.92651 | 33828 ft | 428 kts | 258° |
| 2026-04-26 08:21 | 31.07855 | 96.85910 | 33831 ft | 428 kts | 258° |
| 2026-04-26 08:21 | 31.06397 | 96.79175 | 33846 ft | 428 kts | 258° |
| 2026-04-26 08:22 | 31.04941 | 96.72444 | 33847 ft | 428 kts | 258° |
| 2026-04-26 08:22 | 31.03488 | 96.65706 | 33860 ft | 428 kts | 258° |
| 2026-04-26 08:23 | 31.02028 | 96.59001 | 33861 ft | 429 kts | 257° |
| 2026-04-26 08:23 | 31.00551 | 96.52263 | 33875 ft | 429 kts | 257° |
| 2026-04-26 08:24 | 30.99077 | 96.45531 | 33872 ft | 429 kts | 258° |
| 2026-04-26 08:24 | 30.97614 | 96.38793 | 33874 ft | 429 kts | 258° |
| 2026-04-26 08:25 | 30.96187 | 96.32049 | 33869 ft | 428 kts | 258° |
| 2026-04-26 08:25 | 30.94775 | 96.25311 | 33870 ft | 428 kts | 258° |
| 2026-04-26 08:26 | 30.93349 | 96.18566 | 33873 ft | 428 kts | 258° |
| 2026-04-26 08:26 | 30.91909 | 96.11835 | 33870 ft | 428 kts | 258° |
| 2026-04-26 08:27 | 30.90467 | 96.05107 | 33870 ft | 428 kts | 258° |
| 2026-04-26 08:27 | 30.89033 | 95.98421 | 33865 ft | 429 kts | 258° |
| 2026-04-26 08:28 | 30.87585 | 95.91677 | 33861 ft | 429 kts | 258° |
| 2026-04-26 08:28 | 30.86134 | 95.84937 | 33864 ft | 429 kts | 258° |
| 2026-04-26 08:29 | 30.84682 | 95.78197 | 33870 ft | 429 kts | 258° |
| 2026-04-26 08:29 | 30.83226 | 95.71448 | 33896 ft | 430 kts | 258° |
| 2026-04-26 08:30 | 30.81822 | 95.64688 | 33903 ft | 430 kts | 259° |
| 2026-04-26 08:30 | 30.80446 | 95.57920 | 33916 ft | 429 kts | 259° |
| 2026-04-26 08:31 | 30.79053 | 95.51162 | 33921 ft | 429 kts | 259° |
| 2026-04-26 08:31 | 30.77650 | 95.44414 | 33943 ft | 429 kts | 259° |
| 2026-04-26 08:32 | 30.76257 | 95.37716 | 33941 ft | 429 kts | 259° |
| 2026-04-26 08:32 | 30.74851 | 95.30975 | 33948 ft | 429 kts | 259° |
| 2026-04-26 08:33 | 30.73439 | 95.24238 | 34022 ft | 429 kts | 259° |
| 2026-04-26 08:33 | 30.72024 | 95.17512 | 34040 ft | 428 kts | 259° |
| 2026-04-26 08:34 | 30.70610 | 95.10796 | 34043 ft | 428 kts | 259° |
| 2026-04-26 08:34 | 30.69201 | 95.04081 | 34042 ft | 428 kts | 259° |
| 2026-04-26 08:35 | 30.67782 | 94.97369 | 34049 ft | 428 kts | 259° |
| 2026-04-26 08:35 | 30.66357 | 94.90660 | 34047 ft | 427 kts | 259° |
| 2026-04-26 08:36 | 30.64922 | 94.83966 | 34054 ft | 427 kts | 259° |
| 2026-04-26 08:36 | 30.63490 | 94.77273 | 34095 ft | 427 kts | 259° |
| 2026-04-26 08:37 | 30.62078 | 94.70624 | 34092 ft | 426 kts | 259° |
| 2026-04-26 08:37 | 30.60652 | 94.63942 | 34091 ft | 426 kts | 259° |
| 2026-04-26 08:38 | 30.59219 | 94.57259 | 34086 ft | 427 kts | 259° |
| 2026-04-26 08:38 | 30.57773 | 94.50582 | 34097 ft | 426 kts | 258° |
| 2026-04-26 08:39 | 30.56332 | 94.43914 | 34096 ft | 426 kts | 258° |
| 2026-04-26 08:39 | 30.54879 | 94.37241 | 34100 ft | 425 kts | 258° |
| 2026-04-26 08:40 | 30.53438 | 94.30628 | 34100 ft | 425 kts | 258° |
| 2026-04-26 08:40 | 30.51986 | 94.23966 | 34103 ft | 425 kts | 258° |
| 2026-04-26 08:41 | 30.50536 | 94.17323 | 34099 ft | 425 kts | 258° |
| 2026-04-26 08:41 | 30.49159 | 94.10674 | 34095 ft | 424 kts | 258° |
| 2026-04-26 08:42 | 30.47796 | 94.04032 | 34096 ft | 423 kts | 258° |
| 2026-04-26 08:42 | 30.46424 | 93.97394 | 34097 ft | 423 kts | 258° |
| 2026-04-26 08:43 | 30.45041 | 93.90755 | 34073 ft | 423 kts | 258° |
| 2026-04-26 08:43 | 30.43649 | 93.84135 | 34070 ft | 423 kts | 258° |
| 2026-04-26 08:44 | 30.42253 | 93.77521 | 34033 ft | 423 kts | 258° |
| 2026-04-26 08:44 | 30.40860 | 93.70906 | 34032 ft | 422 kts | 258° |
| 2026-04-26 08:45 | 30.39482 | 93.64389 | 34046 ft | 405 kts | 258° |
| 2026-04-26 08:45 | 30.38820 | 93.61273 | 34046 ft | 391 kts | 258° |
| 2026-04-26 08:45 | 30.38314 | 93.58226 | 34046 ft | 381 kts | 269° |
| 2026-04-26 08:46 | 30.38534 | 93.55200 | 34044 ft | 377 kts | 285° |
| 2026-04-26 08:46 | 30.39534 | 93.52407 | 34045 ft | 378 kts | 301° |
| 2026-04-26 08:46 | 30.41209 | 93.50063 | 34004 ft | 380 kts | 317° |
| 2026-04-26 08:46 | 30.43434 | 93.48375 | 34006 ft | 386 kts | 334° |
| 2026-04-26 08:47 | 30.46033 | 93.47548 | 34006 ft | 393 kts | 352° |
| 2026-04-26 08:47 | 30.48784 | 93.47700 | 34000 ft | 401 kts | 9° |
| 2026-04-26 08:47 | 30.51410 | 93.48870 | 34000 ft | 410 kts | 28° |
| 2026-04-26 08:47 | 30.53583 | 93.50964 | 33998 ft | 417 kts | 48° |
| 2026-04-26 08:48 | 30.55094 | 93.53853 | 34032 ft | 422 kts | 68° |
| 2026-04-26 08:48 | 30.55980 | 93.57108 | 34029 ft | 425 kts | 73° |
| 2026-04-26 08:48 | 30.57396 | 93.63780 | 34019 ft | 427 kts | 76° |
| 2026-04-26 08:49 | 30.58234 | 93.70578 | 33996 ft | 428 kts | 97° |
| 2026-04-26 08:49 | 30.57474 | 93.73894 | 33998 ft | 426 kts | 117° |
| 2026-04-26 08:49 | 30.55840 | 93.76725 | 34007 ft | 421 kts | 137° |
| 2026-04-26 08:50 | 30.53522 | 93.78756 | 34042 ft | 418 kts | 158° |
| 2026-04-26 08:50 | 30.50785 | 93.79792 | 34040 ft | 411 kts | 178° |
| 2026-04-26 08:50 | 30.47976 | 93.79722 | 34042 ft | 402 kts | 197° |
| 2026-04-26 08:50 | 30.45383 | 93.78644 | 34045 ft | 393 kts | 214° |
| 2026-04-26 08:51 | 30.41744 | 93.74242 | 34043 ft | 380 kts | 248° |
| 2026-04-26 08:51 | 30.40839 | 93.71379 | 34044 ft | 378 kts | 255° |
| 2026-04-26 08:52 | 30.39532 | 93.65485 | 34045 ft | 378 kts | 259° |
| 2026-04-26 08:52 | 30.38595 | 93.60502 | 34043 ft | 378 kts | 259° |
| 2026-04-26 08:52 | 30.38389 | 93.56526 | 34034 ft | 374 kts | 280° |
| 2026-04-26 08:53 | 30.38809 | 93.54553 | 34027 ft | 373 kts | 291° |
| 2026-04-26 08:53 | 30.40046 | 93.51929 | 34021 ft | 374 kts | 308° |
| 2026-04-26 08:53 | 30.41944 | 93.49865 | 33977 ft | 377 kts | 325° |
| 2026-04-26 08:53 | 30.44335 | 93.48587 | 33973 ft | 383 kts | 343° |
| 2026-04-26 08:54 | 30.46968 | 93.48263 | 33965 ft | 391 kts | 1° |
| 2026-04-26 08:54 | 30.49635 | 93.48977 | 33967 ft | 400 kts | 21° |
| 2026-04-26 08:54 | 30.52003 | 93.50742 | 33997 ft | 412 kts | 41° |
| 2026-04-26 08:54 | 30.53750 | 93.53408 | 34041 ft | 422 kts | 63° |
| 2026-04-26 08:55 | 30.54733 | 93.56636 | 34046 ft | 427 kts | 72° |
| 2026-04-26 08:55 | 30.56191 | 93.63342 | 34038 ft | 429 kts | 75° |
| 2026-04-26 08:56 | 30.57113 | 93.70168 | 34031 ft | 430 kts | 96° |
| 2026-04-26 08:56 | 30.56350 | 93.73503 | 34041 ft | 429 kts | 118° |
| 2026-04-26 08:56 | 30.54652 | 93.76309 | 34030 ft | 424 kts | 140° |
| 2026-04-26 08:56 | 30.52257 | 93.78206 | 34020 ft | 414 kts | 161° |
| 2026-04-26 08:57 | 30.49513 | 93.79001 | 34016 ft | 404 kts | 182° |
| 2026-04-26 08:57 | 30.46758 | 93.78673 | 34037 ft | 396 kts | 202° |
| 2026-04-26 08:57 | 30.44299 | 93.77331 | 34042 ft | 389 kts | 220° |
| 2026-04-26 08:57 | 30.42391 | 93.75178 | 34040 ft | 382 kts | 239° |
| 2026-04-26 08:58 | 30.41202 | 93.72513 | 34040 ft | 376 kts | 256° |
| 2026-04-26 08:58 | 30.39941 | 93.66586 | 34043 ft | 377 kts | 258° |
| 2026-04-26 08:59 | 30.38709 | 93.60717 | 34040 ft | 380 kts | 257° |
| 2026-04-26 08:59 | 30.36816 | 93.54879 | 34040 ft | 396 kts | 247° |
| 2026-04-26 09:00 | 30.34304 | 93.49047 | 33990 ft | 413 kts | 245° |
| 2026-04-26 09:00 | 30.31680 | 93.43021 | 33998 ft | 423 kts | 246° |